sensor_id;sensor_type;location;lat;lon;timestamp;temperature;humidity
12827;DHT22;66927;48.812;9.118;2024-02-21T00:00:47;9.10;99.90
12827;DHT22;66927;48.812;9.118;2024-02-21T00:03:12;9.10;99.90
12827;DHT22;66927;48.812;9.118;2024-02-21T00:05:38;9.10;99.90
12827;DHT22;66927;48.812;9.118;2024-02-21T00:08:04;9.10;99.90
12827;DHT22;66927;48.812;9.118;2024-02-21T00:10:30;9.10;99.90
12827;DHT22;66927;48.812;9.118;2024-02-21T00:12:57;9.20;99.90
12827;DHT22;66927;48.812;9.118;2024-02-21T00:15:24;9.20;99.90
12827;DHT22;66927;48.812;9.118;2024-02-21T00:17:50;9.10;99.90
12827;DHT22;66927;48.812;9.118;2024-02-21T00:20:16;9.10;99.90
12827;DHT22;66927;48.812;9.118;2024-02-21T00:22:43;9.20;99.90
12827;DHT22;66927;48.812;9.118;2024-02-21T00:25:09;9.20;99.90
12827;DHT22;66927;48.812;9.118;2024-02-21T00:27:35;9.20;99.90
12827;DHT22;66927;48.812;9.118;2024-02-21T00:30:02;9.10;99.90
12827;DHT22;66927;48.812;9.118;2024-02-21T00:32:27;9.10;99.90
12827;DHT22;66927;48.812;9.118;2024-02-21T00:34:53;9.20;99.90
12827;DHT22;66927;48.812;9.118;2024-02-21T00:37:18;9.20;99.90
12827;DHT22;66927;48.812;9.118;2024-02-21T00:39:44;9.20;99.90
12827;DHT22;66927;48.812;9.118;2024-02-21T00:42:09;9.20;99.90
12827;DHT22;66927;48.812;9.118;2024-02-21T00:44:35;9.20;99.90
12827;DHT22;66927;48.812;9.118;2024-02-21T00:47:01;9.20;99.90
12827;DHT22;66927;48.812;9.118;2024-02-21T00:49:26;9.20;99.90
12827;DHT22;66927;48.812;9.118;2024-02-21T00:51:52;9.20;99.90
12827;DHT22;66927;48.812;9.118;2024-02-21T00:54:18;9.10;99.90
12827;DHT22;66927;48.812;9.118;2024-02-21T00:56:43;9.10;99.90
12827;DHT22;66927;48.812;9.118;2024-02-21T00:59:09;9.10;99.90
12827;DHT22;66927;48.812;9.118;2024-02-21T01:01:34;9.20;99.90
12827;DHT22;66927;48.812;9.118;2024-02-21T01:04:00;9.20;99.90
12827;DHT22;66927;48.812;9.118;2024-02-21T01:06:26;9.20;99.90
12827;DHT22;66927;48.812;9.118;2024-02-21T01:08:52;9.20;99.90
12827;DHT22;66927;48.812;9.118;2024-02-21T01:11:18;9.20;99.90
12827;DHT22;66927;48.812;9.118;2024-02-21T01:13:44;9.20;99.90
12827;DHT22;66927;48.812;9.118;2024-02-21T01:16:10;9.20;99.90
12827;DHT22;66927;48.812;9.118;2024-02-21T01:18:38;9.10;99.90
12827;DHT22;66927;48.812;9.118;2024-02-21T01:21:05;9.10;99.90
12827;DHT22;66927;48.812;9.118;2024-02-21T01:23:34;8.90;99.90
12827;DHT22;66927;48.812;9.118;2024-02-21T01:26:00;8.90;99.90
12827;DHT22;66927;48.812;9.118;2024-02-21T01:28:26;9.00;99.90
12827;DHT22;66927;48.812;9.118;2024-02-21T01:30:51;8.90;99.90
12827;DHT22;66927;48.812;9.118;2024-02-21T01:33:17;8.90;99.90
12827;DHT22;66927;48.812;9.118;2024-02-21T01:35:43;8.90;99.90
12827;DHT22;66927;48.812;9.118;2024-02-21T01:38:08;9.00;99.90
12827;DHT22;66927;48.812;9.118;2024-02-21T01:40:34;9.00;99.90
12827;DHT22;66927;48.812;9.118;2024-02-21T01:43:00;9.00;99.90
12827;DHT22;66927;48.812;9.118;2024-02-21T01:45:26;9.00;99.90
12827;DHT22;66927;48.812;9.118;2024-02-21T01:47:51;9.00;99.90
12827;DHT22;66927;48.812;9.118;2024-02-21T01:50:17;9.00;99.90
12827;DHT22;66927;48.812;9.118;2024-02-21T01:52:46;9.00;99.90
12827;DHT22;66927;48.812;9.118;2024-02-21T01:55:13;8.90;99.90
12827;DHT22;66927;48.812;9.118;2024-02-21T01:57:41;8.90;99.90
12827;DHT22;66927;48.812;9.118;2024-02-21T02:00:07;8.90;99.90
12827;DHT22;66927;48.812;9.118;2024-02-21T02:02:35;8.90;99.90
12827;DHT22;66927;48.812;9.118;2024-02-21T02:05:01;8.90;99.90
12827;DHT22;66927;48.812;9.118;2024-02-21T02:07:27;8.90;99.90
12827;DHT22;66927;48.812;9.118;2024-02-21T02:09:52;8.90;99.90
12827;DHT22;66927;48.812;9.118;2024-02-21T02:12:18;8.80;99.90
12827;DHT22;66927;48.812;9.118;2024-02-21T02:14:43;8.90;99.90
12827;DHT22;66927;48.812;9.118;2024-02-21T02:17:09;8.80;99.90
12827;DHT22;66927;48.812;9.118;2024-02-21T02:19:35;8.70;99.90
12827;DHT22;66927;48.812;9.118;2024-02-21T02:22:09;8.70;99.90
12827;DHT22;66927;48.812;9.118;2024-02-21T02:24:38;8.70;99.90
12827;DHT22;66927;48.812;9.118;2024-02-21T02:27:04;8.80;99.90
12827;DHT22;66927;48.812;9.118;2024-02-21T02:29:32;8.80;99.90
12827;DHT22;66927;48.812;9.118;2024-02-21T02:31:58;8.80;99.90
12827;DHT22;66927;48.812;9.118;2024-02-21T02:34:23;8.80;99.90
12827;DHT22;66927;48.812;9.118;2024-02-21T02:36:49;8.80;99.90
12827;DHT22;66927;48.812;9.118;2024-02-21T02:39:15;8.80;99.90
12827;DHT22;66927;48.812;9.118;2024-02-21T02:41:40;8.70;99.90
12827;DHT22;66927;48.812;9.118;2024-02-21T02:44:06;8.60;99.90
12827;DHT22;66927;48.812;9.118;2024-02-21T02:46:32;8.60;99.90
12827;DHT22;66927;48.812;9.118;2024-02-21T02:48:57;8.60;99.90
12827;DHT22;66927;48.812;9.118;2024-02-21T02:51:23;8.70;99.90
12827;DHT22;66927;48.812;9.118;2024-02-21T02:53:48;8.70;99.90
12827;DHT22;66927;48.812;9.118;2024-02-21T02:56:15;8.70;99.90
12827;DHT22;66927;48.812;9.118;2024-02-21T02:58:44;8.70;99.90
12827;DHT22;66927;48.812;9.118;2024-02-21T03:01:10;8.70;99.90
12827;DHT22;66927;48.812;9.118;2024-02-21T03:03:36;8.60;99.90
12827;DHT22;66927;48.812;9.118;2024-02-21T03:06:01;8.70;99.90
12827;DHT22;66927;48.812;9.118;2024-02-21T03:08:27;8.60;99.90
12827;DHT22;66927;48.812;9.118;2024-02-21T03:10:53;8.60;99.90
12827;DHT22;66927;48.812;9.118;2024-02-21T03:13:18;8.60;99.90
12827;DHT22;66927;48.812;9.118;2024-02-21T03:15:44;8.60;99.90
12827;DHT22;66927;48.812;9.118;2024-02-21T03:18:10;8.70;99.90
12827;DHT22;66927;48.812;9.118;2024-02-21T03:20:35;8.70;99.90
12827;DHT22;66927;48.812;9.118;2024-02-21T03:23:01;8.60;99.90
12827;DHT22;66927;48.812;9.118;2024-02-21T03:25:27;8.60;99.90
12827;DHT22;66927;48.812;9.118;2024-02-21T03:27:52;8.70;99.90
12827;DHT22;66927;48.812;9.118;2024-02-21T03:30:18;8.80;99.90
12827;DHT22;66927;48.812;9.118;2024-02-21T03:32:44;8.90;99.90
12827;DHT22;66927;48.812;9.118;2024-02-21T03:35:09;8.90;99.90
12827;DHT22;66927;48.812;9.118;2024-02-21T03:37:35;8.90;99.90
12827;DHT22;66927;48.812;9.118;2024-02-21T03:40:01;8.90;99.90
12827;DHT22;66927;48.812;9.118;2024-02-21T03:42:27;8.80;99.90
12827;DHT22;66927;48.812;9.118;2024-02-21T03:44:55;8.80;99.90
12827;DHT22;66927;48.812;9.118;2024-02-21T03:47:21;8.90;99.90
12827;DHT22;66927;48.812;9.118;2024-02-21T03:49:47;8.90;99.90
12827;DHT22;66927;48.812;9.118;2024-02-21T03:52:12;8.90;99.90
12827;DHT22;66927;48.812;9.118;2024-02-21T03:54:38;8.90;99.90
12827;DHT22;66927;48.812;9.118;2024-02-21T03:57:05;8.80;99.90
12827;DHT22;66927;48.812;9.118;2024-02-21T03:59:32;8.90;99.90
12827;DHT22;66927;48.812;9.118;2024-02-21T04:01:57;8.80;99.90
12827;DHT22;66927;48.812;9.118;2024-02-21T04:04:24;8.80;99.90
12827;DHT22;66927;48.812;9.118;2024-02-21T04:06:50;8.80;99.90
12827;DHT22;66927;48.812;9.118;2024-02-21T04:09:16;8.80;99.90
12827;DHT22;66927;48.812;9.118;2024-02-21T04:11:42;8.80;99.90
12827;DHT22;66927;48.812;9.118;2024-02-21T04:14:08;8.80;99.90
12827;DHT22;66927;48.812;9.118;2024-02-21T04:16:34;8.80;99.90
12827;DHT22;66927;48.812;9.118;2024-02-21T04:19:00;8.80;99.90
12827;DHT22;66927;48.812;9.118;2024-02-21T04:21:27;8.80;99.90
12827;DHT22;66927;48.812;9.118;2024-02-21T04:23:53;8.80;99.90
12827;DHT22;66927;48.812;9.118;2024-02-21T04:26:18;8.80;99.90
12827;DHT22;66927;48.812;9.118;2024-02-21T04:28:47;8.90;99.90
12827;DHT22;66927;48.812;9.118;2024-02-21T04:31:13;8.80;99.90
12827;DHT22;66927;48.812;9.118;2024-02-21T04:33:38;8.70;99.90
12827;DHT22;66927;48.812;9.118;2024-02-21T04:36:04;8.70;99.90
12827;DHT22;66927;48.812;9.118;2024-02-21T04:38:30;8.60;99.90
12827;DHT22;66927;48.812;9.118;2024-02-21T04:40:56;8.60;99.90
12827;DHT22;66927;48.812;9.118;2024-02-21T04:43:24;8.60;99.90
12827;DHT22;66927;48.812;9.118;2024-02-21T04:45:50;8.60;99.90
12827;DHT22;66927;48.812;9.118;2024-02-21T04:48:16;8.70;99.90
12827;DHT22;66927;48.812;9.118;2024-02-21T04:50:42;8.70;99.90
12827;DHT22;66927;48.812;9.118;2024-02-21T04:53:08;8.70;99.90
12827;DHT22;66927;48.812;9.118;2024-02-21T04:55:34;8.70;99.90
12827;DHT22;66927;48.812;9.118;2024-02-21T04:58:00;8.70;99.90
12827;DHT22;66927;48.812;9.118;2024-02-21T05:00:27;8.70;99.90
12827;DHT22;66927;48.812;9.118;2024-02-21T05:02:53;8.70;99.90
12827;DHT22;66927;48.812;9.118;2024-02-21T05:05:19;8.60;99.90
12827;DHT22;66927;48.812;9.118;2024-02-21T05:07:44;8.60;99.90
12827;DHT22;66927;48.812;9.118;2024-02-21T05:10:10;8.60;99.90
12827;DHT22;66927;48.812;9.118;2024-02-21T05:12:36;8.60;99.90
12827;DHT22;66927;48.812;9.118;2024-02-21T05:15:02;8.40;99.90
12827;DHT22;66927;48.812;9.118;2024-02-21T05:17:28;8.40;99.90
12827;DHT22;66927;48.812;9.118;2024-02-21T05:19:54;8.50;99.90
12827;DHT22;66927;48.812;9.118;2024-02-21T05:22:19;8.50;99.90
12827;DHT22;66927;48.812;9.118;2024-02-21T05:24:45;8.50;99.90
12827;DHT22;66927;48.812;9.118;2024-02-21T05:27:10;8.50;99.90
12827;DHT22;66927;48.812;9.118;2024-02-21T05:29:36;8.50;99.90
12827;DHT22;66927;48.812;9.118;2024-02-21T05:32:02;8.50;99.90
12827;DHT22;66927;48.812;9.118;2024-02-21T05:34:27;8.40;99.90
12827;DHT22;66927;48.812;9.118;2024-02-21T05:36:53;8.40;99.90
12827;DHT22;66927;48.812;9.118;2024-02-21T05:39:19;8.30;99.90
12827;DHT22;66927;48.812;9.118;2024-02-21T05:41:48;8.30;99.90
12827;DHT22;66927;48.812;9.118;2024-02-21T05:44:13;8.20;99.90
12827;DHT22;66927;48.812;9.118;2024-02-21T05:46:39;8.20;99.90
12827;DHT22;66927;48.812;9.118;2024-02-21T05:49:04;8.10;99.90
12827;DHT22;66927;48.812;9.118;2024-02-21T05:51:34;8.20;99.90
12827;DHT22;66927;48.812;9.118;2024-02-21T05:54:00;8.20;99.90
12827;DHT22;66927;48.812;9.118;2024-02-21T05:56:26;8.20;99.90
12827;DHT22;66927;48.812;9.118;2024-02-21T05:58:51;8.30;99.90
12827;DHT22;66927;48.812;9.118;2024-02-21T06:01:17;8.30;99.90
12827;DHT22;66927;48.812;9.118;2024-02-21T06:03:43;8.30;99.90
12827;DHT22;66927;48.812;9.118;2024-02-21T06:06:09;8.30;99.90
12827;DHT22;66927;48.812;9.118;2024-02-21T06:08:34;8.20;99.90
12827;DHT22;66927;48.812;9.118;2024-02-21T06:11:00;8.30;99.90
12827;DHT22;66927;48.812;9.118;2024-02-21T06:13:26;8.30;99.90
12827;DHT22;66927;48.812;9.118;2024-02-21T06:15:52;8.30;99.90
12827;DHT22;66927;48.812;9.118;2024-02-21T06:18:18;8.40;99.90
12827;DHT22;66927;48.812;9.118;2024-02-21T06:20:44;8.40;99.90
12827;DHT22;66927;48.812;9.118;2024-02-21T06:23:17;8.40;99.90
12827;DHT22;66927;48.812;9.118;2024-02-21T06:25:43;8.30;99.90
12827;DHT22;66927;48.812;9.118;2024-02-21T06:28:09;8.40;99.90
12827;DHT22;66927;48.812;9.118;2024-02-21T06:30:35;8.40;99.90
12827;DHT22;66927;48.812;9.118;2024-02-21T06:33:01;8.40;99.90
12827;DHT22;66927;48.812;9.118;2024-02-21T06:35:28;8.40;99.90
12827;DHT22;66927;48.812;9.118;2024-02-21T06:37:54;8.40;99.90
12827;DHT22;66927;48.812;9.118;2024-02-21T06:40:21;8.40;99.90
12827;DHT22;66927;48.812;9.118;2024-02-21T06:42:47;8.40;99.90
12827;DHT22;66927;48.812;9.118;2024-02-21T06:45:13;8.40;99.90
12827;DHT22;66927;48.812;9.118;2024-02-21T06:47:39;8.40;99.90
12827;DHT22;66927;48.812;9.118;2024-02-21T06:50:04;8.40;99.90
12827;DHT22;66927;48.812;9.118;2024-02-21T06:52:30;8.40;99.90
12827;DHT22;66927;48.812;9.118;2024-02-21T06:54:56;8.40;99.90
12827;DHT22;66927;48.812;9.118;2024-02-21T06:57:22;8.40;99.90
12827;DHT22;66927;48.812;9.118;2024-02-21T06:59:48;8.40;99.90
12827;DHT22;66927;48.812;9.118;2024-02-21T07:02:14;8.40;99.90
12827;DHT22;66927;48.812;9.118;2024-02-21T07:04:39;8.40;99.90
12827;DHT22;66927;48.812;9.118;2024-02-21T07:07:05;8.40;99.90
12827;DHT22;66927;48.812;9.118;2024-02-21T07:09:31;8.40;99.90
12827;DHT22;66927;48.812;9.118;2024-02-21T07:12:00;8.30;99.90
12827;DHT22;66927;48.812;9.118;2024-02-21T07:14:28;8.20;99.90
12827;DHT22;66927;48.812;9.118;2024-02-21T07:16:53;8.20;99.90
12827;DHT22;66927;48.812;9.118;2024-02-21T07:19:20;8.10;99.90
12827;DHT22;66927;48.812;9.118;2024-02-21T07:21:45;8.10;99.90
12827;DHT22;66927;48.812;9.118;2024-02-21T07:24:11;8.10;99.90
12827;DHT22;66927;48.812;9.118;2024-02-21T07:26:37;8.10;99.90
12827;DHT22;66927;48.812;9.118;2024-02-21T07:29:02;8.00;99.90
12827;DHT22;66927;48.812;9.118;2024-02-21T07:31:28;7.90;99.90
12827;DHT22;66927;48.812;9.118;2024-02-21T07:33:53;7.90;99.90
12827;DHT22;66927;48.812;9.118;2024-02-21T07:36:28;8.00;99.90
12827;DHT22;66927;48.812;9.118;2024-02-21T07:38:55;8.10;99.90
12827;DHT22;66927;48.812;9.118;2024-02-21T07:41:20;8.10;99.90
12827;DHT22;66927;48.812;9.118;2024-02-21T07:43:46;8.00;99.90
12827;DHT22;66927;48.812;9.118;2024-02-21T07:46:14;8.10;99.90
12827;DHT22;66927;48.812;9.118;2024-02-21T07:48:39;8.20;99.90
12827;DHT22;66927;48.812;9.118;2024-02-21T07:51:05;8.30;99.90
12827;DHT22;66927;48.812;9.118;2024-02-21T07:53:30;8.40;99.90
12827;DHT22;66927;48.812;9.118;2024-02-21T07:55:56;8.50;99.90
12827;DHT22;66927;48.812;9.118;2024-02-21T07:58:22;8.50;99.90
12827;DHT22;66927;48.812;9.118;2024-02-21T08:00:47;8.60;99.90
12827;DHT22;66927;48.812;9.118;2024-02-21T08:03:13;8.60;99.90
12827;DHT22;66927;48.812;9.118;2024-02-21T08:05:48;8.70;99.90
12827;DHT22;66927;48.812;9.118;2024-02-21T08:08:14;8.60;99.90
12827;DHT22;66927;48.812;9.118;2024-02-21T08:10:45;8.60;99.90
12827;DHT22;66927;48.812;9.118;2024-02-21T08:13:11;8.70;99.90
12827;DHT22;66927;48.812;9.118;2024-02-21T08:15:36;8.70;99.90
12827;DHT22;66927;48.812;9.118;2024-02-21T08:18:05;8.80;99.90
12827;DHT22;66927;48.812;9.118;2024-02-21T08:20:34;8.80;99.90
12827;DHT22;66927;48.812;9.118;2024-02-21T08:23:00;8.90;99.90
12827;DHT22;66927;48.812;9.118;2024-02-21T08:25:26;8.90;99.90
12827;DHT22;66927;48.812;9.118;2024-02-21T08:27:55;9.00;99.90
12827;DHT22;66927;48.812;9.118;2024-02-21T08:30:21;9.00;99.90
12827;DHT22;66927;48.812;9.118;2024-02-21T08:32:46;9.00;99.90
12827;DHT22;66927;48.812;9.118;2024-02-21T08:35:12;9.00;99.90
12827;DHT22;66927;48.812;9.118;2024-02-21T08:37:38;9.00;99.90
12827;DHT22;66927;48.812;9.118;2024-02-21T08:40:04;9.00;99.90
12827;DHT22;66927;48.812;9.118;2024-02-21T08:42:35;9.00;99.90
12827;DHT22;66927;48.812;9.118;2024-02-21T08:45:01;9.00;99.90
12827;DHT22;66927;48.812;9.118;2024-02-21T08:47:26;9.00;99.90
12827;DHT22;66927;48.812;9.118;2024-02-21T08:49:52;9.00;99.90
12827;DHT22;66927;48.812;9.118;2024-02-21T08:52:18;9.00;99.90
12827;DHT22;66927;48.812;9.118;2024-02-21T08:54:43;9.00;99.90
12827;DHT22;66927;48.812;9.118;2024-02-21T08:57:09;9.10;99.90
12827;DHT22;66927;48.812;9.118;2024-02-21T08:59:35;9.10;99.90
12827;DHT22;66927;48.812;9.118;2024-02-21T09:02:00;9.00;99.90
12827;DHT22;66927;48.812;9.118;2024-02-21T09:04:28;9.10;99.90
12827;DHT22;66927;48.812;9.118;2024-02-21T09:06:54;9.20;99.90
12827;DHT22;66927;48.812;9.118;2024-02-21T09:09:19;9.30;99.90
12827;DHT22;66927;48.812;9.118;2024-02-21T09:11:45;9.30;99.90
12827;DHT22;66927;48.812;9.118;2024-02-21T09:14:11;9.40;99.90
12827;DHT22;66927;48.812;9.118;2024-02-21T09:16:37;9.40;99.90
12827;DHT22;66927;48.812;9.118;2024-02-21T09:19:03;9.40;99.90
12827;DHT22;66927;48.812;9.118;2024-02-21T09:21:30;9.40;99.90
12827;DHT22;66927;48.812;9.118;2024-02-21T09:23:55;9.40;99.90
12827;DHT22;66927;48.812;9.118;2024-02-21T09:26:21;9.40;99.90
12827;DHT22;66927;48.812;9.118;2024-02-21T09:28:47;9.50;99.90
12827;DHT22;66927;48.812;9.118;2024-02-21T09:31:12;9.50;99.90
12827;DHT22;66927;48.812;9.118;2024-02-21T09:33:38;9.50;99.90
12827;DHT22;66927;48.812;9.118;2024-02-21T09:36:04;9.60;99.90
12827;DHT22;66927;48.812;9.118;2024-02-21T09:38:33;9.50;99.90
12827;DHT22;66927;48.812;9.118;2024-02-21T09:41:18;9.60;99.90
12827;DHT22;66927;48.812;9.118;2024-02-21T09:43:44;9.70;99.90
12827;DHT22;66927;48.812;9.118;2024-02-21T09:46:18;9.70;99.90
12827;DHT22;66927;48.812;9.118;2024-02-21T09:51:36;9.90;99.90
12827;DHT22;66927;48.812;9.118;2024-02-21T09:54:04;10.00;99.90
12827;DHT22;66927;48.812;9.118;2024-02-21T09:56:30;10.00;99.90
12827;DHT22;66927;48.812;9.118;2024-02-21T09:58:56;10.00;99.90
12827;DHT22;66927;48.812;9.118;2024-02-21T10:01:22;10.10;99.90
12827;DHT22;66927;48.812;9.118;2024-02-21T10:03:48;10.20;99.90
12827;DHT22;66927;48.812;9.118;2024-02-21T10:06:15;10.20;99.90
12827;DHT22;66927;48.812;9.118;2024-02-21T10:08:40;10.40;99.90
12827;DHT22;66927;48.812;9.118;2024-02-21T10:11:06;10.40;99.90
12827;DHT22;66927;48.812;9.118;2024-02-21T10:13:34;10.40;99.90
12827;DHT22;66927;48.812;9.118;2024-02-21T10:16:04;10.50;99.90
12827;DHT22;66927;48.812;9.118;2024-02-21T10:18:30;10.50;99.90
12827;DHT22;66927;48.812;9.118;2024-02-21T10:21:06;10.60;99.90
12827;DHT22;66927;48.812;9.118;2024-02-21T10:26:08;10.70;99.90
12827;DHT22;66927;48.812;9.118;2024-02-21T10:28:33;10.60;99.90
12827;DHT22;66927;48.812;9.118;2024-02-21T10:30:59;10.70;99.90
12827;DHT22;66927;48.812;9.118;2024-02-21T10:33:24;10.70;99.90
12827;DHT22;66927;48.812;9.118;2024-02-21T10:35:53;10.80;99.90
12827;DHT22;66927;48.812;9.118;2024-02-21T10:38:19;10.80;99.90
12827;DHT22;66927;48.812;9.118;2024-02-21T10:40:46;10.70;99.90
12827;DHT22;66927;48.812;9.118;2024-02-21T10:43:14;10.70;99.90
12827;DHT22;66927;48.812;9.118;2024-02-21T10:45:41;10.80;99.90
12827;DHT22;66927;48.812;9.118;2024-02-21T10:48:14;10.80;99.90
12827;DHT22;66927;48.812;9.118;2024-02-21T10:51:14;10.90;99.90
12827;DHT22;66927;48.812;9.118;2024-02-21T10:58:47;10.90;99.90
12827;DHT22;66927;48.812;9.118;2024-02-21T11:01:13;10.90;99.90
12827;DHT22;66927;48.812;9.118;2024-02-21T11:03:42;10.90;99.90
12827;DHT22;66927;48.812;9.118;2024-02-21T11:06:10;11.00;99.90
12827;DHT22;66927;48.812;9.118;2024-02-21T11:08:36;11.10;99.90
12827;DHT22;66927;48.812;9.118;2024-02-21T11:11:02;11.20;99.90
12827;DHT22;66927;48.812;9.118;2024-02-21T11:13:35;11.30;99.90
12827;DHT22;66927;48.812;9.118;2024-02-21T11:18:34;11.40;99.90
12827;DHT22;66927;48.812;9.118;2024-02-21T11:21:00;11.40;99.90
12827;DHT22;66927;48.812;9.118;2024-02-21T11:23:26;11.40;99.90
12827;DHT22;66927;48.812;9.118;2024-02-21T11:25:52;11.50;99.90
12827;DHT22;66927;48.812;9.118;2024-02-21T11:28:25;11.70;99.90
12827;DHT22;66927;48.812;9.118;2024-02-21T11:30:51;11.80;99.90
12827;DHT22;66927;48.812;9.118;2024-02-21T11:33:17;11.80;99.90
12827;DHT22;66927;48.812;9.118;2024-02-21T11:35:42;11.80;99.90
12827;DHT22;66927;48.812;9.118;2024-02-21T11:38:10;11.80;99.90
12827;DHT22;66927;48.812;9.118;2024-02-21T11:40:38;11.80;99.90
12827;DHT22;66927;48.812;9.118;2024-02-21T11:43:05;11.80;99.90
12827;DHT22;66927;48.812;9.118;2024-02-21T11:45:31;11.80;99.90
12827;DHT22;66927;48.812;9.118;2024-02-21T11:47:58;11.80;99.90
12827;DHT22;66927;48.812;9.118;2024-02-21T11:50:26;11.80;99.90
12827;DHT22;66927;48.812;9.118;2024-02-21T11:52:54;11.80;99.90
12827;DHT22;66927;48.812;9.118;2024-02-21T11:55:21;11.80;99.90
12827;DHT22;66927;48.812;9.118;2024-02-21T11:57:48;11.70;99.90
12827;DHT22;66927;48.812;9.118;2024-02-21T12:00:15;11.70;99.90
12827;DHT22;66927;48.812;9.118;2024-02-21T12:02:42;11.70;99.90
12827;DHT22;66927;48.812;9.118;2024-02-21T12:05:08;11.80;99.70
12827;DHT22;66927;48.812;9.118;2024-02-21T12:07:36;11.80;99.80
12827;DHT22;66927;48.812;9.118;2024-02-21T12:10:08;11.80;99.90
12827;DHT22;66927;48.812;9.118;2024-02-21T12:12:35;11.80;99.90
12827;DHT22;66927;48.812;9.118;2024-02-21T12:15:03;11.80;99.90
12827;DHT22;66927;48.812;9.118;2024-02-21T12:17:36;11.90;99.90
12827;DHT22;66927;48.812;9.118;2024-02-21T12:20:03;12.00;99.90
12827;DHT22;66927;48.812;9.118;2024-02-21T12:22:31;12.00;99.20
12827;DHT22;66927;48.812;9.118;2024-02-21T12:24:58;12.00;99.50
12827;DHT22;66927;48.812;9.118;2024-02-21T12:27:25;12.10;99.80
12827;DHT22;66927;48.812;9.118;2024-02-21T12:29:51;12.20;99.70
12827;DHT22;66927;48.812;9.118;2024-02-21T12:32:17;12.30;99.50
12827;DHT22;66927;48.812;9.118;2024-02-21T12:34:43;12.40;99.50
12827;DHT22;66927;48.812;9.118;2024-02-21T12:37:10;12.40;99.70
12827;DHT22;66927;48.812;9.118;2024-02-21T12:39:37;12.40;99.40
12827;DHT22;66927;48.812;9.118;2024-02-21T12:42:04;12.40;98.70
12827;DHT22;66927;48.812;9.118;2024-02-21T12:44:29;12.40;98.90
12827;DHT22;66927;48.812;9.118;2024-02-21T12:46:55;12.40;98.80
12827;DHT22;66927;48.812;9.118;2024-02-21T12:49:21;12.30;99.00
12827;DHT22;66927;48.812;9.118;2024-02-21T12:51:46;12.30;98.80
12827;DHT22;66927;48.812;9.118;2024-02-21T12:54:12;12.40;98.80
12827;DHT22;66927;48.812;9.118;2024-02-21T12:56:38;12.40;98.70
12827;DHT22;66927;48.812;9.118;2024-02-21T12:59:05;12.40;98.60
12827;DHT22;66927;48.812;9.118;2024-02-21T13:01:34;12.30;98.50
12827;DHT22;66927;48.812;9.118;2024-02-21T13:04:00;12.30;98.80
12827;DHT22;66927;48.812;9.118;2024-02-21T13:06:26;12.30;98.70
12827;DHT22;66927;48.812;9.118;2024-02-21T13:08:52;12.30;98.70
12827;DHT22;66927;48.812;9.118;2024-02-21T13:11:17;12.40;98.30
12827;DHT22;66927;48.812;9.118;2024-02-21T13:13:43;12.40;98.70
12827;DHT22;66927;48.812;9.118;2024-02-21T13:16:09;12.40;98.80
12827;DHT22;66927;48.812;9.118;2024-02-21T13:18:35;12.40;99.00
12827;DHT22;66927;48.812;9.118;2024-02-21T13:21:04;12.40;99.20
12827;DHT22;66927;48.812;9.118;2024-02-21T13:23:30;12.40;99.10
12827;DHT22;66927;48.812;9.118;2024-02-21T13:25:56;12.40;98.60
12827;DHT22;66927;48.812;9.118;2024-02-21T13:28:21;12.40;97.70
12827;DHT22;66927;48.812;9.118;2024-02-21T13:30:47;12.50;97.00
12827;DHT22;66927;48.812;9.118;2024-02-21T13:33:13;12.50;97.20
12827;DHT22;66927;48.812;9.118;2024-02-21T13:35:39;12.50;97.80
12827;DHT22;66927;48.812;9.118;2024-02-21T13:38:05;12.50;98.20
12827;DHT22;66927;48.812;9.118;2024-02-21T13:40:30;12.60;97.80
12827;DHT22;66927;48.812;9.118;2024-02-21T13:42:56;12.70;97.30
12827;DHT22;66927;48.812;9.118;2024-02-21T13:45:22;12.60;97.40
12827;DHT22;66927;48.812;9.118;2024-02-21T13:47:47;12.60;97.60
12827;DHT22;66927;48.812;9.118;2024-02-21T13:50:14;12.60;96.90
12827;DHT22;66927;48.812;9.118;2024-02-21T13:52:40;12.50;96.80
12827;DHT22;66927;48.812;9.118;2024-02-21T13:55:06;12.60;97.10
12827;DHT22;66927;48.812;9.118;2024-02-21T13:57:36;12.60;97.30
12827;DHT22;66927;48.812;9.118;2024-02-21T14:00:03;12.50;97.40
12827;DHT22;66927;48.812;9.118;2024-02-21T14:02:28;12.50;97.20
12827;DHT22;66927;48.812;9.118;2024-02-21T14:04:56;12.40;97.00
12827;DHT22;66927;48.812;9.118;2024-02-21T14:07:22;12.50;96.60
12827;DHT22;66927;48.812;9.118;2024-02-21T14:09:47;12.40;96.70
12827;DHT22;66927;48.812;9.118;2024-02-21T14:12:13;12.40;96.00
12827;DHT22;66927;48.812;9.118;2024-02-21T14:14:39;12.40;95.90
12827;DHT22;66927;48.812;9.118;2024-02-21T14:17:05;12.40;96.00
12827;DHT22;66927;48.812;9.118;2024-02-21T14:19:30;12.30;95.90
12827;DHT22;66927;48.812;9.118;2024-02-21T14:21:56;12.30;95.80
12827;DHT22;66927;48.812;9.118;2024-02-21T14:24:22;12.30;95.90
12827;DHT22;66927;48.812;9.118;2024-02-21T14:26:48;12.30;95.90
12827;DHT22;66927;48.812;9.118;2024-02-21T14:29:14;12.20;96.00
12827;DHT22;66927;48.812;9.118;2024-02-21T14:31:39;12.20;96.00
12827;DHT22;66927;48.812;9.118;2024-02-21T14:34:05;12.20;96.00
12827;DHT22;66927;48.812;9.118;2024-02-21T14:36:33;12.20;95.70
12827;DHT22;66927;48.812;9.118;2024-02-21T14:38:58;12.20;95.40
12827;DHT22;66927;48.812;9.118;2024-02-21T14:41:24;12.30;95.30
12827;DHT22;66927;48.812;9.118;2024-02-21T14:43:50;12.30;95.60
12827;DHT22;66927;48.812;9.118;2024-02-21T14:46:17;12.30;95.50
12827;DHT22;66927;48.812;9.118;2024-02-21T14:48:42;12.30;94.10
12827;DHT22;66927;48.812;9.118;2024-02-21T14:51:08;12.40;93.90
12827;DHT22;66927;48.812;9.118;2024-02-21T14:53:34;12.40;94.00
12827;DHT22;66927;48.812;9.118;2024-02-21T14:55:59;12.40;94.00
12827;DHT22;66927;48.812;9.118;2024-02-21T14:58:25;12.40;94.00
12827;DHT22;66927;48.812;9.118;2024-02-21T15:00:51;12.40;93.50
12827;DHT22;66927;48.812;9.118;2024-02-21T15:03:17;12.40;93.40
12827;DHT22;66927;48.812;9.118;2024-02-21T15:05:46;12.30;93.00
12827;DHT22;66927;48.812;9.118;2024-02-21T15:08:12;12.30;92.70
12827;DHT22;66927;48.812;9.118;2024-02-21T15:10:38;12.30;92.20
12827;DHT22;66927;48.812;9.118;2024-02-21T15:13:04;12.30;92.30
12827;DHT22;66927;48.812;9.118;2024-02-21T15:15:30;12.30;92.60
12827;DHT22;66927;48.812;9.118;2024-02-21T15:17:56;12.30;92.00
12827;DHT22;66927;48.812;9.118;2024-02-21T15:20:22;12.30;92.20
12827;DHT22;66927;48.812;9.118;2024-02-21T15:22:47;12.20;91.80
12827;DHT22;66927;48.812;9.118;2024-02-21T15:25:14;12.30;92.00
12827;DHT22;66927;48.812;9.118;2024-02-21T15:27:44;12.20;92.00
12827;DHT22;66927;48.812;9.118;2024-02-21T15:30:13;12.30;91.90
12827;DHT22;66927;48.812;9.118;2024-02-21T15:32:40;12.30;91.80
12827;DHT22;66927;48.812;9.118;2024-02-21T15:35:09;12.20;91.70
12827;DHT22;66927;48.812;9.118;2024-02-21T15:37:36;12.30;91.90
12827;DHT22;66927;48.812;9.118;2024-02-21T15:40:01;12.40;91.40
12827;DHT22;66927;48.812;9.118;2024-02-21T15:42:28;12.40;91.60
12827;DHT22;66927;48.812;9.118;2024-02-21T15:44:54;12.40;91.70
12827;DHT22;66927;48.812;9.118;2024-02-21T15:47:20;12.30;91.60